Time;durP1;ratioP1;P1;durP2;ratioP2;P2;SDS_P1;SDS_P2;PMS_P1;PMS_P2;Temp;Humidity;BMP_temperature;BMP_pressure;BME280_temperature;BME280_humidity;BME280_pressure;Samples;Min_cycle;Max_cycle;Signal;HPM_P1;HPM_P2
2023/09/06 00:02:24;;;;;;;1.77;1.30;;;;;;;20.57;52.15;100281.37;4458670;32;33954;-74
2023/09/06 00:04:54;;;;;;;2.60;1.60;;;;;;;20.56;52.08;100275.09;4465366;32;33639;-72
2023/09/06 00:07:23;;;;;;;3.85;1.98;;;;;;;20.50;52.26;100275.72;4468420;32;33332;-72
2023/09/06 00:09:51;;;;;;;4.25;1.85;;;;;;;20.48;52.32;100275.91;4467123;32;35675;-71
2023/09/06 00:12:20;;;;;;;4.05;1.42;;;;;;;20.53;52.10;100270.00;4466334;32;34944;-71
2023/09/06 00:14:48;;;;;;;2.83;1.62;;;;;;;20.42;52.30;100273.84;4467327;32;34684;-72
2023/09/06 00:17:15;;;;;;;2.72;1.87;;;;;;;20.44;52.11;100271.78;4465866;32;33920;-71
2023/09/06 00:19:43;;;;;;;3.90;1.80;;;;;;;20.37;52.21;100270.75;4466692;32;33716;-72
2023/09/06 00:22:11;;;;;;;3.47;1.77;;;;;;;20.13;52.69;100271.53;4466831;32;34984;-72
2023/09/06 00:24:38;;;;;;;6.00;2.28;;;;;;;20.25;52.33;100269.34;4467840;32;34400;-71
2023/09/06 00:27:06;;;;;;;2.45;1.60;;;;;;;20.19;52.45;100268.16;4467363;32;33035;-71
2023/09/06 00:29:33;;;;;;;10.18;2.75;;;;;;;20.27;52.27;100270.06;4466900;32;34691;-72
2023/09/06 00:32:01;;;;;;;4.15;2.05;;;;;;;20.38;51.91;100268.88;4465760;32;33927;-71
2023/09/06 00:34:31;;;;;;;1.98;1.02;;;;;;;20.40;52.05;100272.31;4466045;32;33704;-71
2023/09/06 00:37:01;;;;;;;2.20;1.65;;;;;;;20.19;52.47;100267.28;4454669;32;34113;-71
2023/09/06 00:39:30;;;;;;;3.20;1.60;;;;;;;20.12;52.63;100269.81;4465144;32;33815;-71
2023/09/06 00:42:00;;;;;;;2.55;1.50;;;;;;;20.16;52.30;100267.63;4466847;32;34872;-72
2023/09/06 00:44:28;;;;;;;2.85;1.37;;;;;;;19.94;52.89;100269.91;4466441;32;34696;-72
2023/09/06 00:46:56;;;;;;;3.62;1.50;;;;;;;19.78;53.43;100275.28;4466034;32;33235;-76
2023/09/06 00:49:24;;;;;;;3.28;1.62;;;;;;;19.62;54.07;100277.87;4464408;32;34633;-75
2023/09/06 00:51:53;;;;;;;4.37;1.75;;;;;;;19.54;54.32;100271.34;4467018;32;33938;-75
2023/09/06 00:54:20;;;;;;;2.42;1.52;;;;;;;19.57;54.14;100270.19;4466593;32;33729;-75
2023/09/06 00:56:48;;;;;;;4.82;1.85;;;;;;;19.71;53.71;100263.31;4467382;32;33034;-76
2023/09/06 00:59:22;;;;;;;3.00;1.98;;;;;;;19.85;53.35;100276.31;4466072;32;34906;-76
2023/09/06 01:01:50;;;;;;;2.47;1.58;;;;;;;19.76;53.51;100272.72;4463686;32;33977;-76
2023/09/06 01:04:18;;;;;;;2.12;1.45;;;;;;;19.93;53.07;100264.63;4461850;32;33497;-76
2023/09/06 01:06:46;;;;;;;5.30;2.05;;;;;;;19.95;53.00;100268.06;4465562;32;33283;-76
2023/09/06 01:09:14;;;;;;;3.70;2.00;;;;;;;19.92;52.82;100266.50;4456304;32;33844;-75
2023/09/06 01:11:42;;;;;;;3.47;1.98;;;;;;;19.73;53.10;100267.59;4461884;32;34050;-75
2023/09/06 01:14:09;;;;;;;2.70;1.73;;;;;;;19.83;52.63;100266.63;4465783;32;33886;-76
2023/09/06 01:16:48;;;;;;;4.82;1.80;;;;;;;19.72;52.81;100267.78;4462698;32;32978;-76
2023/09/06 01:19:18;;;;;;;3.25;2.08;;;;;;;19.81;52.53;100274.06;4452294;32;34867;-76
2023/09/06 01:22:08;;;;;;;3.45;1.90;;;;;;;19.54;53.28;100273.22;4465457;32;34962;-76
2023/09/06 01:24:36;;;;;;;3.40;1.80;;;;;;;19.60;53.12;100264.44;4453133;32;34773;-76
2023/09/06 01:27:05;;;;;;;3.25;1.75;;;;;;;19.56;53.25;100268.50;4465828;32;34286;-75
2023/09/06 01:29:34;;;;;;;3.30;1.40;;;;;;;19.61;53.24;100260.69;4466957;32;33810;-75
2023/09/06 01:32:05;;;;;;;5.78;2.03;;;;;;;19.60;53.24;100271.72;4464936;32;35186;-75
2023/09/06 01:34:33;;;;;;;3.87;2.45;;;;;;;19.49;53.52;100267.44;4463587;32;33352;-74
2023/09/06 01:37:00;;;;;;;4.60;2.25;;;;;;;19.57;53.13;100267.47;4466004;32;34358;-74
2023/09/06 01:39:28;;;;;;;2.90;1.60;;;;;;;19.61;53.11;100273.44;4468135;32;33399;-75
2023/09/06 01:41:56;;;;;;;2.92;1.50;;;;;;;19.62;53.08;100276.00;4467626;32;34218;-75
2023/09/06 01:44:23;;;;;;;3.62;2.00;;;;;;;19.49;53.42;100267.44;4469420;32;33874;-75
2023/09/06 01:46:51;;;;;;;4.30;2.33;;;;;;;19.69;52.73;100268.09;4465103;32;32087;-75
2023/09/06 01:49:19;;;;;;;5.87;2.15;;;;;;;19.66;52.85;100263.81;4465836;32;35145;-75
2023/09/06 01:51:48;;;;;;;3.60;2.12;;;;;;;19.70;52.53;100267.91;4467962;32;34416;-75
2023/09/06 01:54:15;;;;;;;2.30;1.62;;;;;;;19.69;52.65;100268.09;4468011;32;34252;-74
2023/09/06 01:56:43;;;;;;;3.85;1.98;;;;;;;19.67;52.62;100279.09;4468737;32;32972;-75
2023/09/06 01:59:11;;;;;;;2.80;1.37;;;;;;;19.68;52.48;100269.97;4469059;32;34694;-75
2023/09/06 02:01:38;;;;;;;4.57;2.55;;;;;;;19.50;52.90;100263.69;4468540;32;35356;-75
2023/09/06 02:04:06;;;;;;;4.57;2.25;;;;;;;19.45;52.99;100266.03;4468205;32;34045;-75
2023/09/06 02:06:34;;;;;;;4.97;2.03;;;;;;;19.39;53.11;100270.25;4467886;32;31867;-75
2023/09/06 02:09:03;;;;;;;4.43;2.25;;;;;;;19.41;52.97;100273.63;4467239;32;33760;-75
2023/09/06 02:11:33;;;;;;;3.78;2.62;;;;;;;19.31;53.18;100276.44;4465277;32;33858;-74
2023/09/06 02:14:01;;;;;;;4.10;1.83;;;;;;;19.22;53.53;100269.25;4466440;32;34117;-72
2023/09/06 02:16:30;;;;;;;4.62;2.10;;;;;;;19.26;53.52;100270.66;4468015;32;34370;-72
2023/09/06 02:18:58;;;;;;;3.60;1.95;;;;;;;19.28;53.40;100274.06;4468776;32;33862;-72
2023/09/06 02:21:26;;;;;;;6.12;2.08;;;;;;;19.19;53.66;100271.44;4467639;32;34360;-72
2023/09/06 02:23:56;;;;;;;3.22;2.03;;;;;;;19.06;54.17;100264.53;4466914;32;33774;-72
2023/09/06 02:26:24;;;;;;;3.22;1.60;;;;;;;19.21;53.81;100256.69;4467070;32;34334;-72
2023/09/06 02:28:52;;;;;;;4.12;1.98;;;;;;;19.24;53.74;100256.38;4467375;32;34496;-72
2023/09/06 02:31:20;;;;;;;5.40;1.98;;;;;;;19.21;53.92;100255.84;4466843;32;34111;-72
2023/09/06 02:33:47;;;;;;;3.80;2.20;;;;;;;19.29;53.66;100259.50;4466298;32;33988;-72
2023/09/06 02:36:15;;;;;;;4.20;2.40;;;;;;;19.26;53.74;100259.81;4468079;32;32749;-72
2023/09/06 02:38:45;;;;;;;4.35;1.92;;;;;;;19.36;53.48;100251.56;4468773;32;34818;-72
2023/09/06 02:41:14;;;;;;;3.15;1.90;;;;;;;19.37;53.34;100257.84;4464549;32;35077;-72
2023/09/06 02:43:42;;;;;;;4.78;2.62;;;;;;;19.31;53.28;100254.75;4467770;32;33624;-72
2023/09/06 02:46:12;;;;;;;3.03;1.87;;;;;;;19.23;53.31;100254.69;4466702;32;33089;-75
2023/09/06 02:48:40;;;;;;;8.38;2.37;;;;;;;19.24;53.27;100253.69;4466954;32;33795;-74
2023/09/06 02:51:10;;;;;;;3.67;1.98;;;;;;;19.16;53.47;100261.75;4465944;32;33912;-74
2023/09/06 02:53:44;;;;;;;7.18;3.10;;;;;;;19.18;53.29;100254.31;4466819;32;33767;-74
2023/09/06 02:56:15;;;;;;;4.18;1.85;;;;;;;19.16;53.15;100258.19;4463859;32;33409;-74
2023/09/06 02:58:43;;;;;;;5.68;2.00;;;;;;;18.98;53.59;100256.34;4467418;32;33463;-73
2023/09/06 03:01:19;;;;;;;2.55;1.67;;;;;;;18.94;53.75;100262.22;4467052;32;33930;-73
2023/09/06 03:03:51;;;;;;;4.43;2.35;;;;;;;18.99;53.66;100262.62;4467648;32;33969;-73
2023/09/06 03:06:19;;;;;;;3.95;1.95;;;;;;;18.70;54.52;100260.97;4467424;32;33303;-73
2023/09/06 03:08:47;;;;;;;2.67;1.83;;;;;;;18.69;54.35;100256.56;4468718;32;33487;-73
2023/09/06 03:11:15;;;;;;;3.65;1.98;;;;;;;18.73;54.36;100262.56;4465738;32;33892;-73
2023/09/06 03:13:45;;;;;;;4.20;2.58;;;;;;;18.61;54.80;100265.44;4467507;32;33809;-73
2023/09/06 03:16:13;;;;;;;5.65;2.67;;;;;;;18.67;54.57;100263.16;4468686;32;34509;-73
2023/09/06 03:18:42;;;;;;;2.75;1.87;;;;;;;18.75;54.09;100255.13;4466111;32;35018;-73
2023/09/06 03:21:12;;;;;;;3.60;1.60;;;;;;;18.76;54.02;100254.97;4467390;32;34942;-73
2023/09/06 03:23:44;;;;;;;2.90;1.50;;;;;;;18.81;53.84;100263.50;4467693;32;33811;-73
2023/09/06 03:26:15;;;;;;;4.68;2.12;;;;;;;18.75;54.07;100263.28;4468485;32;33337;-74
2023/09/06 03:28:42;;;;;;;2.40;1.70;;;;;;;18.73;54.07;100265.28;4466569;32;33641;-73
2023/09/06 03:31:12;;;;;;;4.57;1.90;;;;;;;19.02;53.33;100265.03;4464778;32;34053;-73
2023/09/06 03:33:41;;;;;;;3.45;2.20;;;;;;;19.12;53.07;100262.22;4468495;32;33841;-73
2023/09/06 03:36:09;;;;;;;2.25;1.50;;;;;;;19.20;52.59;100265.03;4465237;32;33509;-73
2023/09/06 03:38:37;;;;;;;2.75;1.50;;;;;;;19.13;52.73;100264.75;4465012;32;34816;-72
2023/09/06 03:41:07;;;;;;;5.03;2.97;;;;;;;19.09;52.67;100266.94;4467822;32;34445;-72
2023/09/06 03:43:37;;;;;;;3.83;1.77;;;;;;;19.13;52.69;100259.34;4463267;32;33985;-72
2023/09/06 03:46:07;;;;;;;1.52;1.25;;;;;;;19.07;53.05;100266.28;4460801;32;34516;-72
2023/09/06 03:48:35;;;;;;;5.53;2.37;;;;;;;19.14;52.59;100269.22;4468469;32;33795;-72
2023/09/06 03:51:04;;;;;;;3.90;2.03;;;;;;;19.05;52.82;100273.69;4465177;32;33809;-72
2023/09/06 03:53:34;;;;;;;4.15;2.33;;;;;;;19.05;52.69;100272.84;4468250;32;34113;-73
2023/09/06 03:56:01;;;;;;;7.10;2.60;;;;;;;19.16;52.54;100279.88;4468366;32;33465;-73
2023/09/06 03:58:29;;;;;;;3.30;1.90;;;;;;;19.07;52.55;100281.69;4467222;32;33615;-72
2023/09/06 04:00:58;;;;;;;3.30;1.92;;;;;;;19.00;52.54;100275.16;4464081;32;33778;-73
2023/09/06 04:03:27;;;;;;;2.55;1.73;;;;;;;18.96;52.65;100279.22;4467346;32;32923;-73
2023/09/06 04:05:57;;;;;;;3.92;1.85;;;;;;;18.93;52.51;100282.22;4465218;32;33161;-72
2023/09/06 04:08:28;;;;;;;5.62;2.53;;;;;;;18.86;52.61;100284.72;4466464;32;33572;-73
2023/09/06 04:10:57;;;;;;;4.60;1.92;;;;;;;18.76;52.78;100279.38;4466867;32;35059;-74
2023/09/06 04:13:24;;;;;;;4.25;1.83;;;;;;;18.71;52.89;100280.81;4468130;32;33751;-74
2023/09/06 04:15:52;;;;;;;3.47;1.80;;;;;;;18.72;52.79;100283.41;4467427;32;33220;-74
2023/09/06 04:18:20;;;;;;;6.47;2.72;;;;;;;18.68;53.08;100279.25;4465555;32;33674;-74
2023/09/06 04:20:49;;;;;;;2.90;2.17;;;;;;;18.46;53.55;100277.84;4467078;32;33677;-74
2023/09/06 04:23:17;;;;;;;4.28;1.90;;;;;;;18.47;53.53;100278.69;4466810;32;35139;-74
2023/09/06 04:25:45;;;;;;;3.50;1.15;;;;;;;18.48;53.62;100280.41;4467559;32;34571;-74
2023/09/06 04:28:15;;;;;;;3.80;1.85;;;;;;;18.60;53.44;100287.31;4467464;32;34158;-73
2023/09/06 04:30:46;;;;;;;5.22;2.35;;;;;;;18.72;53.35;100290.66;4466742;32;33840;-73
2023/09/06 04:33:14;;;;;;;2.40;1.70;;;;;;;18.67;53.63;100290.25;4467752;32;34624;-73
2023/09/06 04:35:45;;;;;;;3.58;2.03;;;;;;;18.74;53.47;100289.50;4465029;32;33297;-73
2023/09/06 04:38:17;;;;;;;4.45;2.35;;;;;;;18.91;53.02;100293.25;4464040;32;33670;-73
2023/09/06 04:40:47;;;;;;;3.42;2.20;;;;;;;18.76;53.33;100297.50;4462341;32;33802;-72
2023/09/06 04:43:18;;;;;;;2.40;1.75;;;;;;;18.84;52.99;100301.16;4466298;32;35141;-75
2023/09/06 04:45:49;;;;;;;3.55;1.70;;;;;;;19.00;52.72;100299.59;4466939;32;34983;-81
2023/09/06 04:48:17;;;;;;;3.65;1.77;;;;;;;18.90;52.89;100299.66;4465551;32;33773;-76
2023/09/06 04:50:46;;;;;;;3.05;1.77;;;;;;;18.95;53.05;100299.22;4466911;32;33897;-75
2023/09/06 04:53:18;;;;;;;5.15;2.37;;;;;;;18.96;53.22;100309.06;4465214;32;34130;-75
2023/09/06 04:55:49;;;;;;;3.00;1.73;;;;;;;19.08;53.00;100305.09;4465207;32;34315;-75
2023/09/06 04:58:18;;;;;;;2.95;1.80;;;;;;;18.78;53.93;100301.78;4467153;32;33725;-74
2023/09/06 05:00:49;;;;;;;5.35;2.37;;;;;;;18.95;53.63;100307.34;4459169;32;35198;-74
2023/09/06 05:03:17;;;;;;;10.18;2.35;;;;;;;19.07;53.33;100309.69;4463460;32;33273;-74
2023/09/06 05:05:47;;;;;;;4.47;2.95;;;;;;;19.08;53.21;100308.66;4466751;32;33593;-74
2023/09/06 05:08:16;;;;;;;7.82;2.53;;;;;;;19.18;53.07;100305.00;4467831;32;33997;-75
2023/09/06 05:10:44;;;;;;;3.40;2.12;;;;;;;19.38;52.85;100302.97;4467102;32;33942;-76
2023/09/06 05:13:11;;;;;;;5.95;1.87;;;;;;;19.74;52.14;100307.34;4461212;32;34986;-71
2023/09/06 05:15:40;;;;;;;3.67;1.85;;;;;;;20.61;49.93;100309.94;4467040;32;34404;-72
2023/09/06 05:18:08;;;;;;;4.60;2.12;;;;;;;21.25;48.36;100311.06;4467200;32;33839;-71
2023/09/06 05:20:38;;;;;;;3.42;1.65;;;;;;;21.37;47.77;100311.59;4467546;32;34069;-72
2023/09/06 05:23:08;;;;;;;2.17;1.55;;;;;;;21.42;47.62;100313.81;4467737;32;34694;-71
2023/09/06 05:25:36;;;;;;;3.35;1.98;;;;;;;22.02;46.97;100316.06;4467088;32;34133;-71
2023/09/06 05:28:08;;;;;;;3.35;1.80;;;;;;;22.25;45.86;100310.78;4468489;32;34749;-71
2023/09/06 05:30:40;;;;;;;5.30;2.00;;;;;;;21.99;45.93;100311.84;4469424;32;35285;-71
2023/09/06 05:33:09;;;;;;;4.12;2.20;;;;;;;22.11;46.20;100315.03;4465728;32;35533;-72
2023/09/06 05:35:40;;;;;;;7.20;2.53;;;;;;;22.21;46.17;100312.97;4466200;32;34371;-75
2023/09/06 05:38:09;;;;;;;6.25;2.25;;;;;;;22.26;45.95;100312.47;4468576;32;34986;-74
2023/09/06 05:40:40;;;;;;;3.67;2.05;;;;;;;22.26;45.79;100315.19;4459881;32;33857;-75
2023/09/06 05:43:09;;;;;;;5.25;2.58;;;;;;;22.31;45.66;100315.50;4468483;32;33828;-74
2023/09/06 05:45:36;;;;;;;2.85;1.60;;;;;;;22.37;45.25;100316.66;4462852;32;33421;-74
2023/09/06 05:48:05;;;;;;;7.57;2.45;;;;;;;22.41;45.41;100327.06;4467993;32;33905;-74
2023/09/06 05:50:35;;;;;;;9.57;2.33;;;;;;;22.64;46.00;100313.47;4464663;32;33660;-72
2023/09/06 05:53:03;;;;;;;7.87;2.83;;;;;;;23.46;44.21;100319.19;4469245;32;33808;-70
2023/09/06 05:55:30;;;;;;;8.48;3.00;;;;;;;24.06;43.64;100316.59;4466621;32;33430;-70
2023/09/06 05:57:58;;;;;;;5.40;2.67;;;;;;;24.52;43.16;100325.44;4465470;32;34074;-70
2023/09/06 06:00:28;;;;;;;8.27;2.60;;;;;;;24.31;43.79;100319.88;4458202;32;32725;-70
2023/09/06 06:02:59;;;;;;;6.75;2.97;;;;;;;24.06;44.58;100322.06;4466320;32;33663;-70
2023/09/06 06:05:27;;;;;;;5.47;2.72;;;;;;;23.85;44.77;100318.19;4463115;32;32876;-70
2023/09/06 06:07:57;;;;;;;5.22;2.92;;;;;;;23.83;44.40;100320.25;4453796;32;34727;-70
2023/09/06 06:10:29;;;;;;;7.28;3.42;;;;;;;23.64;44.31;100321.59;4459833;32;34025;-70
2023/09/06 06:12:57;;;;;;;5.57;3.00;;;;;;;23.56;44.68;100324.41;4466639;32;34628;-69
2023/09/06 06:15:25;;;;;;;5.78;2.70;;;;;;;23.59;45.03;100323.19;4463362;32;33789;-72
2023/09/06 06:17:53;;;;;;;6.72;3.12;;;;;;;23.49;45.54;100326.19;4466610;32;34581;-72
2023/09/06 06:20:21;;;;;;;4.87;2.50;;;;;;;23.48;45.32;100325.34;4462499;32;35184;-72
2023/09/06 06:23:05;;;;;;;5.95;2.42;;;;;;;23.55;45.38;100327.31;4465234;32;33820;-72
2023/09/06 06:25:32;;;;;;;5.93;3.03;;;;;;;23.37;47.15;100331.25;4464371;32;33624;-72
2023/09/06 06:28:00;;;;;;;4.80;2.33;;;;;;;23.52;47.27;100333.16;4467144;32;33713;-72
2023/09/06 06:30:28;;;;;;;9.77;2.70;;;;;;;23.53;47.07;100330.25;4464266;32;35330;-72
2023/09/06 06:32:55;;;;;;;6.00;3.10;;;;;;;23.57;46.84;100333.47;4467045;32;33741;-71
2023/09/06 06:35:23;;;;;;;4.72;2.03;;;;;;;23.45;47.31;100338.50;4465734;32;33179;-70
2023/09/06 06:37:51;;;;;;;5.65;3.03;;;;;;;23.49;47.10;100342.56;4467620;32;33739;-69
2023/09/06 06:40:19;;;;;;;4.53;2.15;;;;;;;23.69;46.74;100342.94;4467344;32;33942;-69
2023/09/06 06:42:46;;;;;;;5.90;2.60;;;;;;;23.59;46.53;100348.63;4469089;32;35024;-69
2023/09/06 06:45:14;;;;;;;6.50;2.72;;;;;;;23.65;46.81;100344.31;4466193;32;33479;-70
2023/09/06 06:47:44;;;;;;;6.37;2.15;;;;;;;23.62;45.03;100344.69;4468648;32;33960;-69
2023/09/06 06:50:12;;;;;;;5.35;2.17;;;;;;;23.51;45.58;100350.59;4466847;32;33579;-69
2023/09/06 06:52:44;;;;;;;6.37;2.37;;;;;;;23.47;45.08;100352.84;4453337;32;33767;-69
2023/09/06 06:55:12;;;;;;;4.62;1.58;;;;;;;23.63;45.14;100349.13;4453007;32;34059;-70
2023/09/06 06:57:40;;;;;;;5.45;2.22;;;;;;;23.75;43.70;100355.00;4465574;32;33387;-69
2023/09/06 07:00:11;;;;;;;5.25;2.60;;;;;;;23.41;43.26;100359.88;4465589;32;34919;-70
2023/09/06 07:02:39;;;;;;;5.65;2.15;;;;;;;23.37;42.59;100355.84;4466313;32;32538;-69
2023/09/06 07:05:07;;;;;;;6.15;2.20;;;;;;;23.46;42.60;100356.59;4468864;32;34374;-70
2023/09/06 07:07:35;;;;;;;5.97;2.17;;;;;;;23.63;42.39;100358.16;4467381;32;34522;-70
2023/09/06 07:10:03;;;;;;;2.95;1.55;;;;;;;23.85;42.03;100351.00;4468283;32;34956;-70
2023/09/06 07:12:31;;;;;;;4.32;2.10;;;;;;;23.76;42.50;100360.31;4465817;32;34278;-70
2023/09/06 07:14:58;;;;;;;3.10;1.98;;;;;;;23.98;41.91;100349.47;4465568;32;33584;-70
2023/09/06 07:17:26;;;;;;;5.75;2.22;;;;;;;24.10;41.14;100356.19;4464460;32;33636;-70
2023/09/06 07:19:54;;;;;;;4.25;1.85;;;;;;;23.52;41.08;100352.28;4467847;32;33776;-69
2023/09/06 07:22:21;;;;;;;2.97;1.52;;;;;;;23.45;40.25;100333.06;4463327;32;34639;-70
2023/09/06 07:24:49;;;;;;;4.45;1.90;;;;;;;23.22;41.32;100352.19;4452969;32;33566;-71
2023/09/06 07:27:17;;;;;;;3.78;1.80;;;;;;;23.47;41.47;100345.50;4462339;32;33784;-72
2023/09/06 07:29:45;;;;;;;7.28;2.40;;;;;;;23.45;41.48;100341.25;4463980;32;33702;-73
2023/09/06 07:32:13;;;;;;;16.83;2.80;;;;;;;23.42;41.31;100338.87;4466334;32;33677;-71
2023/09/06 07:34:40;;;;;;;5.87;2.37;;;;;;;23.41;41.99;100348.13;4466922;32;34613;-73
2023/09/06 07:37:08;;;;;;;5.62;2.25;;;;;;;23.82;40.48;100348.63;4468039;32;34724;-74
2023/09/06 07:39:37;;;;;;;5.62;2.55;;;;;;;23.77;40.14;100344.75;4466602;32;34365;-73
2023/09/06 07:42:05;;;;;;;4.72;2.75;;;;;;;23.16;41.94;100334.66;4464943;32;33530;-72
2023/09/06 07:44:33;;;;;;;8.20;2.37;;;;;;;23.90;41.09;100342.22;4464700;32;33237;-72
2023/09/06 07:47:01;;;;;;;6.53;3.00;;;;;;;24.24;40.87;100346.28;4465280;32;33530;-72
2023/09/06 07:49:31;;;;;;;5.12;2.65;;;;;;;24.06;40.44;100352.13;4461819;32;34009;-72
2023/09/06 07:52:04;;;;;;;6.70;2.83;;;;;;;23.91;40.85;100347.47;4465402;32;33522;-72
2023/09/06 07:54:32;;;;;;;5.60;2.28;;;;;;;24.08;40.86;100347.34;4468032;32;32986;-71
2023/09/06 07:57:00;;;;;;;6.28;2.85;;;;;;;24.42;40.57;100346.78;4465773;32;33418;-71
2023/09/06 07:59:28;;;;;;;7.60;2.65;;;;;;;24.59;41.57;100347.41;4464662;32;35250;-71
2023/09/06 08:01:56;;;;;;;3.45;1.80;;;;;;;24.73;41.32;100346.53;4458245;32;33897;-72
2023/09/06 08:04:24;;;;;;;5.32;2.40;;;;;;;25.20;39.90;100350.69;4465654;32;33149;-69
2023/09/06 08:06:51;;;;;;;5.50;2.72;;;;;;;25.43;39.67;100357.84;4466370;32;34152;-70
2023/09/06 08:09:19;;;;;;;7.40;2.80;;;;;;;25.42;39.41;100362.47;4459097;32;34858;-70
2023/09/06 08:11:47;;;;;;;8.63;4.07;;;;;;;25.69;38.89;100360.81;4461062;32;31727;-71
2023/09/06 08:14:17;;;;;;;8.15;2.47;;;;;;;25.26;40.07;100358.09;4459682;32;34194;-72
2023/09/06 08:16:45;;;;;;;6.05;2.92;;;;;;;25.79;38.77;100361.31;4464155;32;32465;-73
2023/09/06 08:19:13;;;;;;;6.03;2.53;;;;;;;25.92;38.55;100365.25;4460977;32;34075;-72
2023/09/06 08:21:42;;;;;;;4.78;2.65;;;;;;;25.76;38.51;100361.72;4462664;32;33735;-73
2023/09/06 08:24:09;;;;;;;5.70;2.28;;;;;;;25.79;38.53;100363.22;4454351;32;33223;-73
2023/09/06 08:26:37;;;;;;;5.43;2.67;;;;;;;25.77;38.77;100360.66;4459422;32;34218;-71
2023/09/06 08:29:05;;;;;;;7.28;3.35;;;;;;;26.04;38.60;100366.37;4459429;32;34841;-72
2023/09/06 08:31:33;;;;;;;5.25;2.62;;;;;;;25.87;37.90;100365.81;4459895;32;34015;-72
2023/09/06 08:34:02;;;;;;;5.10;2.35;;;;;;;25.94;37.55;100368.63;4456956;32;34730;-74
2023/09/06 08:36:30;;;;;;;5.28;2.87;;;;;;;25.93;38.05;100364.19;4450627;32;32783;-72
2023/09/06 08:38:58;;;;;;;5.62;2.30;;;;;;;25.78;38.43;100365.13;4452309;32;34275;-71
2023/09/06 08:41:27;;;;;;;5.28;2.45;;;;;;;26.05;38.03;100367.22;4453940;32;35033;-73
2023/09/06 08:43:54;;;;;;;5.82;2.17;;;;;;;25.88;37.45;100364.81;4437559;32;33468;-71
2023/09/06 08:46:30;;;;;;;4.68;2.40;;;;;;;25.91;36.84;100363.56;4451584;32;33581;-71
2023/09/06 08:49:00;;;;;;;10.32;3.60;;;;;;;25.81;37.40;100357.56;4441616;32;34012;-71
2023/09/06 08:51:32;;;;;;;9.13;3.00;;;;;;;25.83;37.77;100363.69;4434420;32;35443;-72
2023/09/06 08:54:01;;;;;;;7.47;3.00;;;;;;;26.05;36.85;100361.75;4415819;32;33146;-71
2023/09/06 08:56:30;;;;;;;4.20;2.42;;;;;;;26.11;38.01;100352.72;4420398;32;34000;-71
2023/09/06 08:58:59;;;;;;;4.22;2.10;;;;;;;26.20;37.08;100354.25;4416620;32;35065;-72
2023/09/06 09:01:28;;;;;;;6.62;2.42;;;;;;;26.24;35.85;100356.38;4408491;32;31603;-72
2023/09/06 09:03:56;;;;;;;5.60;2.25;;;;;;;26.12;37.15;100359.88;4384164;32;34552;-72
2023/09/06 09:06:25;;;;;;;7.22;2.50;;;;;;;26.17;36.64;100354.66;4386440;32;33623;-73
2023/09/06 09:08:53;;;;;;;5.15;2.50;;;;;;;26.48;36.77;100352.34;4381050;32;34027;-73
2023/09/06 09:11:20;;;;;;;5.55;2.35;;;;;;;26.43;35.72;100360.28;4377182;32;33734;-73
2023/09/06 09:13:48;;;;;;;5.60;2.22;;;;;;;26.09;36.28;100365.78;4379491;32;30641;-73
2023/09/06 09:16:16;;;;;;;6.40;2.70;;;;;;;26.37;36.06;100352.03;4370099;32;34837;-73
2023/09/06 09:18:45;;;;;;;6.78;2.47;;;;;;;25.91;37.10;100360.81;4369913;32;33392;-73
2023/09/06 09:21:13;;;;;;;5.45;2.20;;;;;;;26.00;37.67;100363.22;4363424;32;34902;-73
2023/09/06 09:23:54;;;;;;;4.10;2.12;;;;;;;26.05;37.97;100362.59;4365533;32;33348;-73
2023/09/06 09:26:22;;;;;;;8.73;2.25;;;;;;;26.38;38.13;100359.19;4407903;32;34909;-73
2023/09/06 09:28:50;;;;;;;7.32;3.65;;;;;;;26.71;34.77;100352.00;4414519;32;34839;-72
2023/09/06 09:31:18;;;;;;;6.68;2.80;;;;;;;26.77;34.35;100360.47;4416647;32;34753;-71
2023/09/06 09:33:51;;;;;;;4.30;2.17;;;;;;;26.48;34.02;100355.06;4416730;32;33109;-72
2023/09/06 09:36:19;;;;;;;4.43;2.08;;;;;;;26.22;34.67;100352.97;4444136;32;35436;-72
2023/09/06 09:38:51;;;;;;;8.38;2.97;;;;;;;26.31;35.19;100352.84;4435551;32;35302;-72
2023/09/06 09:41:19;;;;;;;6.60;2.53;;;;;;;26.74;34.60;100345.22;4432784;32;34045;-72
2023/09/06 09:43:47;;;;;;;6.32;2.65;;;;;;;26.75;34.46;100346.94;4425014;32;34372;-72
2023/09/06 09:46:26;;;;;;;13.13;2.30;;;;;;;26.57;35.39;100344.75;4434097;32;32461;-72
2023/09/06 09:48:59;;;;;;;3.62;2.12;;;;;;;26.80;35.38;100343.56;4450772;32;34929;-72
2023/09/06 09:51:27;;;;;;;6.40;2.60;;;;;;;26.93;34.89;100340.84;4450033;32;33963;-72
2023/09/06 09:53:55;;;;;;;7.97;3.10;;;;;;;26.99;35.07;100341.94;4443743;32;34594;-73
2023/09/06 09:56:23;;;;;;;4.53;2.25;;;;;;;26.54;35.84;100352.56;4451280;32;34479;-72
2023/09/06 09:58:51;;;;;;;20.17;3.35;;;;;;;26.64;35.87;100340.12;4450026;32;35034;-72
2023/09/06 10:01:20;;;;;;;5.78;3.05;;;;;;;27.06;34.77;100335.44;4442479;32;33573;-72
2023/09/06 10:03:49;;;;;;;5.15;2.55;;;;;;;27.33;34.92;100338.25;4442926;32;33193;-72
2023/09/06 10:06:18;;;;;;;5.95;2.78;;;;;;;27.66;34.09;100326.41;4447922;32;33869;-72
2023/09/06 10:08:46;;;;;;;5.47;2.72;;;;;;;27.64;33.75;100330.22;4443499;32;34550;-71
2023/09/06 10:11:15;;;;;;;5.25;2.70;;;;;;;27.68;33.30;100327.88;4430462;32;33474;-72
2023/09/06 10:13:44;;;;;;;4.95;2.62;;;;;;;27.84;31.84;100326.62;4414264;32;33135;-67
2023/09/06 10:16:11;;;;;;;4.22;2.30;;;;;;;27.70;32.49;100316.66;4425042;32;34661;-69
2023/09/06 10:18:39;;;;;;;6.32;2.37;;;;;;;28.04;32.14;100310.94;4429386;32;33978;-71
2023/09/06 10:21:07;;;;;;;4.40;2.12;;;;;;;28.27;31.55;100326.09;4431355;32;33494;-71
2023/09/06 10:23:42;;;;;;;5.70;2.40;;;;;;;27.86;31.63;100316.25;4421128;32;33655;-71
2023/09/06 10:26:10;;;;;;;5.03;2.75;;;;;;;27.86;31.96;100317.12;4430618;32;34422;-71
2023/09/06 10:28:38;;;;;;;6.50;2.33;;;;;;;28.12;32.57;100314.50;4417381;32;35133;-70
2023/09/06 10:31:08;;;;;;;6.57;2.60;;;;;;;28.20;32.44;100309.62;4417842;32;33903;-74
2023/09/06 10:33:37;;;;;;;3.92;2.12;;;;;;;28.14;31.45;100317.88;4411746;32;33441;-73
2023/09/06 10:36:08;;;;;;;4.53;2.62;;;;;;;28.04;32.04;100319.19;4415201;32;32314;-79
2023/09/06 10:38:55;;;;;;;5.35;2.50;;;;;;;28.12;31.74;100320.84;4414448;32;33645;-72
2023/09/06 10:41:24;;;;;;;3.72;2.12;;;;;;;28.57;31.40;100312.66;4413869;32;33664;-68
2023/09/06 10:43:58;;;;;;;5.18;2.67;;;;;;;28.83;30.39;100314.47;4415602;32;34087;-69
2023/09/06 10:46:33;;;;;;;7.17;2.87;;;;;;;28.63;31.61;100305.44;4416707;32;34026;-69
2023/09/06 10:49:22;;;;;;;5.85;2.75;;;;;;;29.00;30.65;100301.87;4411359;32;32669;-70
2023/09/06 10:51:59;;;;;;;5.47;2.85;;;;;;;29.19;30.21;100311.09;4401233;32;33745;-70
2023/09/06 10:54:37;;;;;;;5.97;2.85;;;;;;;28.88;30.38;100302.78;4401397;32;33056;-70
2023/09/06 10:57:10;;;;;;;6.10;2.80;;;;;;;28.96;30.47;100297.84;4398747;32;33365;-71
2023/09/06 10:59:42;;;;;;;5.20;2.92;;;;;;;29.31;29.99;100302.06;4396401;32;32862;-69
2023/09/06 11:02:15;;;;;;;6.40;2.53;;;;;;;29.20;30.79;100300.91;4416971;32;33505;-69
2023/09/06 11:04:47;;;;;;;7.53;3.12;;;;;;;29.28;29.71;100286.84;4417598;32;32927;-69
2023/09/06 11:07:15;;;;;;;6.05;2.67;;;;;;;29.35;29.34;100293.16;4416521;32;33405;-70
2023/09/06 11:09:50;;;;;;;7.30;2.80;;;;;;;29.38;28.49;100298.22;4403966;32;34053;-70
2023/09/06 11:12:18;;;;;;;7.28;2.60;;;;;;;29.38;28.11;100291.87;4415453;32;32191;-70
2023/09/06 11:14:54;;;;;;;5.10;2.83;;;;;;;28.89;29.16;100293.44;4431135;32;34212;-74
2023/09/06 11:17:23;;;;;;;5.45;2.90;;;;;;;29.30;30.11;100283.84;4394308;32;33474;-72
2023/09/06 11:19:50;;;;;;;6.62;2.62;;;;;;;29.28;29.93;100291.50;4408472;32;34627;-72
2023/09/06 11:22:19;;;;;;;4.55;2.47;;;;;;;29.11;28.08;100281.03;4428527;32;35043;-73
2023/09/06 11:24:48;;;;;;;7.05;2.28;;;;;;;29.59;27.17;100283.16;4431364;32;33495;-74
2023/09/06 11:27:20;;;;;;;8.35;2.83;;;;;;;29.76;28.17;100282.62;4426256;32;34629;-72
2023/09/06 11:30:10;;;;;;;4.12;2.35;;;;;;;29.54;28.09;100271.16;4386557;32;33825;-72
2023/09/06 11:32:39;;;;;;;5.25;2.33;;;;;;;29.72;28.61;100276.72;4386551;32;35029;-73
2023/09/06 11:35:08;;;;;;;4.85;2.78;;;;;;;29.76;28.36;100275.22;4385351;32;34065;-70